sensor_id;sensor_type;location;lat;lon;timestamp;P1;durP1;ratioP1;P2;durP2;ratioP2
45490;SDS011;31237;45.586;13.782;2023-05-10T00:00:40;3.80;;;2.22;;
45490;SDS011;31237;45.586;13.782;2023-05-10T00:03:06;3.53;;;2.30;;
45490;SDS011;31237;45.586;13.782;2023-05-10T00:05:32;5.68;;;2.55;;
45490;SDS011;31237;45.586;13.782;2023-05-10T00:07:57;4.45;;;2.40;;
45490;SDS011;31237;45.586;13.782;2023-05-10T00:10:23;3.88;;;2.20;;
45490;SDS011;31237;45.586;13.782;2023-05-10T00:12:49;3.45;;;2.13;;
45490;SDS011;31237;45.586;13.782;2023-05-10T00:15:14;3.40;;;2.20;;
45490;SDS011;31237;45.586;13.782;2023-05-10T00:17:40;4.18;;;2.28;;
45490;SDS011;31237;45.586;13.782;2023-05-10T00:20:06;4.03;;;2.33;;
45490;SDS011;31237;45.586;13.782;2023-05-10T00:22:32;3.25;;;2.40;;
45490;SDS011;31237;45.586;13.782;2023-05-10T00:24:58;3.50;;;2.58;;
45490;SDS011;31237;45.586;13.782;2023-05-10T00:27:24;3.08;;;2.05;;
45490;SDS011;31237;45.586;13.782;2023-05-10T00:29:49;4.22;;;2.30;;
45490;SDS011;31237;45.586;13.782;2023-05-10T00:32:15;4.85;;;2.42;;
45490;SDS011;31237;45.586;13.782;2023-05-10T00:34:41;4.72;;;2.70;;
45490;SDS011;31237;45.586;13.782;2023-05-10T00:37:07;4.30;;;2.30;;
45490;SDS011;31237;45.586;13.782;2023-05-10T00:39:32;3.53;;;2.38;;
45490;SDS011;31237;45.586;13.782;2023-05-10T00:41:58;3.10;;;2.38;;
45490;SDS011;31237;45.586;13.782;2023-05-10T00:44:25;3.60;;;2.47;;
45490;SDS011;31237;45.586;13.782;2023-05-10T00:46:50;4.13;;;2.45;;
45490;SDS011;31237;45.586;13.782;2023-05-10T00:49:16;3.92;;;2.63;;
45490;SDS011;31237;45.586;13.782;2023-05-10T00:51:42;4.03;;;2.67;;
45490;SDS011;31237;45.586;13.782;2023-05-10T00:54:12;3.38;;;2.42;;
45490;SDS011;31237;45.586;13.782;2023-05-10T00:56:42;3.70;;;2.50;;
45490;SDS011;31237;45.586;13.782;2023-05-10T00:59:13;4.55;;;2.70;;
45490;SDS011;31237;45.586;13.782;2023-05-10T01:01:43;3.88;;;2.47;;
45490;SDS011;31237;45.586;13.782;2023-05-10T01:04:12;4.53;;;2.47;;
45490;SDS011;31237;45.586;13.782;2023-05-10T01:06:41;6.68;;;2.50;;
45490;SDS011;31237;45.586;13.782;2023-05-10T01:09:08;4.72;;;2.55;;
45490;SDS011;31237;45.586;13.782;2023-05-10T01:11:38;3.95;;;2.60;;
45490;SDS011;31237;45.586;13.782;2023-05-10T01:14:04;4.30;;;2.42;;
45490;SDS011;31237;45.586;13.782;2023-05-10T01:16:40;5.15;;;2.53;;
45490;SDS011;31237;45.586;13.782;2023-05-10T01:19:12;3.90;;;2.55;;
45490;SDS011;31237;45.586;13.782;2023-05-10T01:21:48;4.07;;;2.60;;
45490;SDS011;31237;45.586;13.782;2023-05-10T01:38:44;4.03;;;2.50;;
45490;SDS011;31237;45.586;13.782;2023-05-10T01:41:25;3.90;;;2.58;;
45490;SDS011;31237;45.586;13.782;2023-05-10T01:46:28;5.47;;;2.83;;
45490;SDS011;31237;45.586;13.782;2023-05-10T01:49:08;3.30;;;2.30;;
45490;SDS011;31237;45.586;13.782;2023-05-10T01:51:41;3.90;;;2.53;;
45490;SDS011;31237;45.586;13.782;2023-05-10T01:54:12;3.90;;;2.40;;
45490;SDS011;31237;45.586;13.782;2023-05-10T01:56:39;3.97;;;2.42;;
45490;SDS011;31237;45.586;13.782;2023-05-10T01:59:08;4.45;;;2.60;;
45490;SDS011;31237;45.586;13.782;2023-05-10T02:01:38;4.70;;;2.42;;
45490;SDS011;31237;45.586;13.782;2023-05-10T02:04:04;3.95;;;2.50;;
45490;SDS011;31237;45.586;13.782;2023-05-10T02:06:33;5.00;;;2.70;;
45490;SDS011;31237;45.586;13.782;2023-05-10T02:09:01;5.93;;;2.30;;
45490;SDS011;31237;45.586;13.782;2023-05-10T02:11:28;3.50;;;2.42;;
45490;SDS011;31237;45.586;13.782;2023-05-10T02:13:55;3.63;;;2.40;;
45490;SDS011;31237;45.586;13.782;2023-05-10T02:16:23;4.13;;;2.70;;
45490;SDS011;31237;45.586;13.782;2023-05-10T02:18:52;4.88;;;2.83;;
45490;SDS011;31237;45.586;13.782;2023-05-10T02:21:19;3.50;;;2.67;;
45490;SDS011;31237;45.586;13.782;2023-05-10T02:23:46;4.80;;;3.10;;
45490;SDS011;31237;45.586;13.782;2023-05-10T02:26:15;4.22;;;2.83;;
45490;SDS011;31237;45.586;13.782;2023-05-10T02:28:41;3.78;;;2.30;;
45490;SDS011;31237;45.586;13.782;2023-05-10T02:31:08;4.15;;;2.45;;
45490;SDS011;31237;45.586;13.782;2023-05-10T02:33:35;3.92;;;2.60;;
45490;SDS011;31237;45.586;13.782;2023-05-10T02:36:05;4.78;;;3.35;;
45490;SDS011;31237;45.586;13.782;2023-05-10T02:38:32;4.65;;;2.95;;
45490;SDS011;31237;45.586;13.782;2023-05-10T02:40:59;3.55;;;2.50;;
45490;SDS011;31237;45.586;13.782;2023-05-10T02:43:26;3.17;;;2.28;;
45490;SDS011;31237;45.586;13.782;2023-05-10T02:45:55;4.35;;;2.78;;
45490;SDS011;31237;45.586;13.782;2023-05-10T02:48:20;5.25;;;2.33;;
45490;SDS011;31237;45.586;13.782;2023-05-10T02:50:46;3.75;;;2.70;;
45490;SDS011;31237;45.586;13.782;2023-05-10T02:53:18;5.47;;;2.90;;
45490;SDS011;31237;45.586;13.782;2023-05-10T02:55:50;3.80;;;2.40;;
45490;SDS011;31237;45.586;13.782;2023-05-10T02:58:17;4.22;;;2.70;;
45490;SDS011;31237;45.586;13.782;2023-05-10T03:00:44;3.92;;;2.42;;
45490;SDS011;31237;45.586;13.782;2023-05-10T03:03:11;3.95;;;2.70;;
45490;SDS011;31237;45.586;13.782;2023-05-10T03:05:37;5.45;;;2.78;;
45490;SDS011;31237;45.586;13.782;2023-05-10T03:08:02;3.78;;;2.60;;
45490;SDS011;31237;45.586;13.782;2023-05-10T03:10:29;3.88;;;2.55;;
45490;SDS011;31237;45.586;13.782;2023-05-10T03:13:12;4.00;;;2.50;;
45490;SDS011;31237;45.586;13.782;2023-05-10T03:16:04;5.35;;;2.97;;
45490;SDS011;31237;45.586;13.782;2023-05-10T03:21:04;4.60;;;2.60;;
45490;SDS011;31237;45.586;13.782;2023-05-10T03:23:40;4.15;;;2.60;;
45490;SDS011;31237;45.586;13.782;2023-05-10T03:26:13;6.00;;;2.78;;
45490;SDS011;31237;45.586;13.782;2023-05-10T03:28:50;3.78;;;2.50;;
45490;SDS011;31237;45.586;13.782;2023-05-10T03:31:18;4.80;;;2.97;;
45490;SDS011;31237;45.586;13.782;2023-05-10T03:33:47;3.22;;;2.35;;
45490;SDS011;31237;45.586;13.782;2023-05-10T03:36:13;4.43;;;2.90;;
45490;SDS011;31237;45.586;13.782;2023-05-10T03:38:39;3.67;;;2.75;;
45490;SDS011;31237;45.586;13.782;2023-05-10T03:41:04;5.72;;;2.72;;
45490;SDS011;31237;45.586;13.782;2023-05-10T03:43:30;4.38;;;3.00;;
45490;SDS011;31237;45.586;13.782;2023-05-10T03:45:56;4.63;;;2.88;;
45490;SDS011;31237;45.586;13.782;2023-05-10T03:48:21;5.47;;;3.17;;
45490;SDS011;31237;45.586;13.782;2023-05-10T03:50:47;4.53;;;2.80;;
45490;SDS011;31237;45.586;13.782;2023-05-10T03:53:14;4.20;;;2.85;;
45490;SDS011;31237;45.586;13.782;2023-05-10T03:55:40;4.53;;;3.00;;
45490;SDS011;31237;45.586;13.782;2023-05-10T03:58:06;4.38;;;2.78;;
45490;SDS011;31237;45.586;13.782;2023-05-10T04:00:35;5.70;;;3.00;;
45490;SDS011;31237;45.586;13.782;2023-05-10T04:03:01;6.80;;;2.83;;
45490;SDS011;31237;45.586;13.782;2023-05-10T04:05:26;5.82;;;2.60;;
45490;SDS011;31237;45.586;13.782;2023-05-10T04:07:52;4.63;;;2.88;;
45490;SDS011;31237;45.586;13.782;2023-05-10T04:10:17;3.63;;;2.47;;
45490;SDS011;31237;45.586;13.782;2023-05-10T04:12:43;3.72;;;2.78;;
45490;SDS011;31237;45.586;13.782;2023-05-10T04:15:09;4.28;;;2.75;;
45490;SDS011;31237;45.586;13.782;2023-05-10T04:17:35;6.55;;;3.00;;
45490;SDS011;31237;45.586;13.782;2023-05-10T04:20:00;5.35;;;3.08;;
45490;SDS011;31237;45.586;13.782;2023-05-10T04:22:26;4.22;;;3.08;;
45490;SDS011;31237;45.586;13.782;2023-05-10T04:24:54;4.70;;;2.88;;
45490;SDS011;31237;45.586;13.782;2023-05-10T04:27:19;6.65;;;2.78;;
45490;SDS011;31237;45.586;13.782;2023-05-10T04:29:45;4.22;;;2.60;;
45490;SDS011;31237;45.586;13.782;2023-05-10T04:32:11;5.13;;;3.00;;
45490;SDS011;31237;45.586;13.782;2023-05-10T04:34:36;5.32;;;3.30;;
45490;SDS011;31237;45.586;13.782;2023-05-10T04:37:02;4.63;;;3.03;;
45490;SDS011;31237;45.586;13.782;2023-05-10T04:39:28;4.22;;;2.60;;
45490;SDS011;31237;45.586;13.782;2023-05-10T04:41:54;4.88;;;3.00;;
45490;SDS011;31237;45.586;13.782;2023-05-10T04:44:19;5.53;;;2.70;;
45490;SDS011;31237;45.586;13.782;2023-05-10T04:46:45;6.00;;;2.80;;
45490;SDS011;31237;45.586;13.782;2023-05-10T04:49:11;5.00;;;3.22;;
45490;SDS011;31237;45.586;13.782;2023-05-10T04:51:36;4.80;;;3.05;;
45490;SDS011;31237;45.586;13.782;2023-05-10T04:54:02;5.35;;;2.90;;
45490;SDS011;31237;45.586;13.782;2023-05-10T04:56:28;4.35;;;3.20;;
45490;SDS011;31237;45.586;13.782;2023-05-10T04:58:53;5.03;;;3.38;;
45490;SDS011;31237;45.586;13.782;2023-05-10T05:01:19;4.68;;;2.72;;
45490;SDS011;31237;45.586;13.782;2023-05-10T05:03:45;4.38;;;3.00;;
45490;SDS011;31237;45.586;13.782;2023-05-10T05:06:10;4.65;;;3.30;;
45490;SDS011;31237;45.586;13.782;2023-05-10T05:08:36;5.15;;;3.03;;
45490;SDS011;31237;45.586;13.782;2023-05-10T05:11:02;4.22;;;3.03;;
45490;SDS011;31237;45.586;13.782;2023-05-10T05:13:27;4.60;;;2.90;;
45490;SDS011;31237;45.586;13.782;2023-05-10T05:15:53;5.03;;;3.25;;
45490;SDS011;31237;45.586;13.782;2023-05-10T05:18:19;4.13;;;3.08;;
45490;SDS011;31237;45.586;13.782;2023-05-10T05:20:45;5.15;;;3.40;;
45490;SDS011;31237;45.586;13.782;2023-05-10T05:23:11;3.75;;;2.80;;
45490;SDS011;31237;45.586;13.782;2023-05-10T05:25:36;5.35;;;3.40;;
45490;SDS011;31237;45.586;13.782;2023-05-10T05:28:02;6.00;;;3.63;;
45490;SDS011;31237;45.586;13.782;2023-05-10T05:30:28;4.43;;;2.83;;
45490;SDS011;31237;45.586;13.782;2023-05-10T05:32:54;5.72;;;3.13;;
45490;SDS011;31237;45.586;13.782;2023-05-10T05:35:19;4.78;;;3.10;;
45490;SDS011;31237;45.586;13.782;2023-05-10T05:37:45;5.07;;;2.97;;
45490;SDS011;31237;45.586;13.782;2023-05-10T05:40:14;5.35;;;3.08;;
45490;SDS011;31237;45.586;13.782;2023-05-10T05:42:40;7.82;;;3.30;;
45490;SDS011;31237;45.586;13.782;2023-05-10T05:45:06;5.32;;;3.10;;
45490;SDS011;31237;45.586;13.782;2023-05-10T05:47:33;6.15;;;3.15;;
45490;SDS011;31237;45.586;13.782;2023-05-10T05:49:59;6.28;;;3.20;;
45490;SDS011;31237;45.586;13.782;2023-05-10T05:52:25;4.32;;;2.90;;
45490;SDS011;31237;45.586;13.782;2023-05-10T05:54:50;4.30;;;2.85;;
45490;SDS011;31237;45.586;13.782;2023-05-10T05:57:16;4.40;;;2.72;;
45490;SDS011;31237;45.586;13.782;2023-05-10T05:59:42;5.35;;;3.28;;
45490;SDS011;31237;45.586;13.782;2023-05-10T06:02:09;5.25;;;3.58;;
45490;SDS011;31237;45.586;13.782;2023-05-10T06:04:35;4.95;;;3.70;;
45490;SDS011;31237;45.586;13.782;2023-05-10T06:07:01;5.35;;;3.50;;
45490;SDS011;31237;45.586;13.782;2023-05-10T06:09:26;5.82;;;4.25;;
45490;SDS011;31237;45.586;13.782;2023-05-10T06:11:52;5.88;;;3.70;;
45490;SDS011;31237;45.586;13.782;2023-05-10T06:14:20;5.13;;;3.25;;
45490;SDS011;31237;45.586;13.782;2023-05-10T06:16:46;5.68;;;3.67;;
45490;SDS011;31237;45.586;13.782;2023-05-10T06:19:11;4.85;;;3.33;;
45490;SDS011;31237;45.586;13.782;2023-05-10T06:21:37;5.93;;;3.40;;
45490;SDS011;31237;45.586;13.782;2023-05-10T06:24:03;4.70;;;3.30;;
45490;SDS011;31237;45.586;13.782;2023-05-10T06:26:29;4.38;;;3.15;;
45490;SDS011;31237;45.586;13.782;2023-05-10T06:28:55;4.93;;;3.13;;
45490;SDS011;31237;45.586;13.782;2023-05-10T06:31:20;4.10;;;2.78;;
45490;SDS011;31237;45.586;13.782;2023-05-10T06:33:46;5.22;;;3.08;;
45490;SDS011;31237;45.586;13.782;2023-05-10T06:36:12;5.07;;;3.10;;
45490;SDS011;31237;45.586;13.782;2023-05-10T06:38:38;8.20;;;2.97;;
45490;SDS011;31237;45.586;13.782;2023-05-10T06:41:04;4.50;;;2.90;;
45490;SDS011;31237;45.586;13.782;2023-05-10T06:43:30;4.53;;;2.90;;
45490;SDS011;31237;45.586;13.782;2023-05-10T06:45:56;5.57;;;3.38;;
45490;SDS011;31237;45.586;13.782;2023-05-10T06:48:22;6.68;;;4.03;;
45490;SDS011;31237;45.586;13.782;2023-05-10T06:50:48;5.05;;;3.45;;
45490;SDS011;31237;45.586;13.782;2023-05-10T06:53:13;4.32;;;3.00;;
45490;SDS011;31237;45.586;13.782;2023-05-10T06:55:39;4.82;;;3.10;;
45490;SDS011;31237;45.586;13.782;2023-05-10T06:58:04;4.93;;;3.30;;
45490;SDS011;31237;45.586;13.782;2023-05-10T07:00:31;5.28;;;3.30;;
45490;SDS011;31237;45.586;13.782;2023-05-10T07:02:56;5.70;;;3.45;;
45490;SDS011;31237;45.586;13.782;2023-05-10T07:05:22;6.57;;;3.85;;
45490;SDS011;31237;45.586;13.782;2023-05-10T07:07:48;5.93;;;3.38;;
45490;SDS011;31237;45.586;13.782;2023-05-10T07:10:13;5.63;;;3.50;;
45490;SDS011;31237;45.586;13.782;2023-05-10T07:12:39;5.47;;;3.42;;
45490;SDS011;31237;45.586;13.782;2023-05-10T07:15:05;5.57;;;3.78;;
45490;SDS011;31237;45.586;13.782;2023-05-10T07:17:31;5.25;;;3.50;;
45490;SDS011;31237;45.586;13.782;2023-05-10T07:19:58;5.95;;;3.50;;
45490;SDS011;31237;45.586;13.782;2023-05-10T07:22:25;6.47;;;3.80;;
45490;SDS011;31237;45.586;13.782;2023-05-10T07:24:50;4.80;;;3.53;;
45490;SDS011;31237;45.586;13.782;2023-05-10T07:27:16;5.50;;;3.50;;
45490;SDS011;31237;45.586;13.782;2023-05-10T07:29:42;5.25;;;3.28;;
45490;SDS011;31237;45.586;13.782;2023-05-10T07:32:07;6.65;;;3.58;;
45490;SDS011;31237;45.586;13.782;2023-05-10T07:34:33;5.47;;;3.75;;
45490;SDS011;31237;45.586;13.782;2023-05-10T07:36:59;5.35;;;3.63;;
45490;SDS011;31237;45.586;13.782;2023-05-10T07:39:25;5.15;;;3.55;;
45490;SDS011;31237;45.586;13.782;2023-05-10T07:41:51;6.28;;;3.90;;
45490;SDS011;31237;45.586;13.782;2023-05-10T07:44:17;5.65;;;3.47;;
45490;SDS011;31237;45.586;13.782;2023-05-10T07:46:44;4.63;;;3.58;;
45490;SDS011;31237;45.586;13.782;2023-05-10T07:49:09;6.85;;;3.83;;
45490;SDS011;31237;45.586;13.782;2023-05-10T07:51:35;6.22;;;3.47;;
45490;SDS011;31237;45.586;13.782;2023-05-10T07:54:01;5.50;;;3.47;;
45490;SDS011;31237;45.586;13.782;2023-05-10T07:56:28;5.43;;;3.55;;
45490;SDS011;31237;45.586;13.782;2023-05-10T07:59:00;6.03;;;3.47;;
45490;SDS011;31237;45.586;13.782;2023-05-10T08:01:27;4.85;;;3.35;;
45490;SDS011;31237;45.586;13.782;2023-05-10T08:03:56;5.75;;;3.47;;
45490;SDS011;31237;45.586;13.782;2023-05-10T08:06:22;5.50;;;3.70;;
45490;SDS011;31237;45.586;13.782;2023-05-10T08:08:47;5.45;;;3.60;;
45490;SDS011;31237;45.586;13.782;2023-05-10T08:11:18;5.57;;;3.63;;
45490;SDS011;31237;45.586;13.782;2023-05-10T08:13:45;4.90;;;3.28;;
45490;SDS011;31237;45.586;13.782;2023-05-10T08:16:11;5.72;;;3.65;;
45490;SDS011;31237;45.586;13.782;2023-05-10T08:18:38;5.80;;;3.90;;
45490;SDS011;31237;45.586;13.782;2023-05-10T08:21:04;6.05;;;3.35;;
45490;SDS011;31237;45.586;13.782;2023-05-10T08:23:30;5.68;;;4.07;;
45490;SDS011;31237;45.586;13.782;2023-05-10T08:25:56;5.50;;;3.92;;
45490;SDS011;31237;45.586;13.782;2023-05-10T08:28:22;6.35;;;3.75;;
45490;SDS011;31237;45.586;13.782;2023-05-10T08:30:49;4.45;;;4.00;;
45490;SDS011;31237;45.586;13.782;2023-05-10T08:33:15;7.15;;;4.47;;
45490;SDS011;31237;45.586;13.782;2023-05-10T08:35:40;6.28;;;4.45;;
45490;SDS011;31237;45.586;13.782;2023-05-10T08:38:06;6.13;;;4.38;;
45490;SDS011;31237;45.586;13.782;2023-05-10T08:40:32;4.53;;;3.90;;
45490;SDS011;31237;45.586;13.782;2023-05-10T08:43:10;6.90;;;4.63;;
45490;SDS011;31237;45.586;13.782;2023-05-10T08:45:41;7.13;;;3.90;;
45490;SDS011;31237;45.586;13.782;2023-05-10T08:48:10;4.85;;;3.55;;
45490;SDS011;31237;45.586;13.782;2023-05-10T08:50:36;5.22;;;3.80;;
45490;SDS011;31237;45.586;13.782;2023-05-10T08:53:04;5.65;;;3.50;;
45490;SDS011;31237;45.586;13.782;2023-05-10T08:58:06;5.72;;;3.70;;
45490;SDS011;31237;45.586;13.782;2023-05-10T09:00:32;5.25;;;3.42;;
45490;SDS011;31237;45.586;13.782;2023-05-10T09:02:58;5.80;;;3.78;;
45490;SDS011;31237;45.586;13.782;2023-05-10T09:05:25;4.63;;;3.65;;
45490;SDS011;31237;45.586;13.782;2023-05-10T09:07:51;7.88;;;3.72;;
45490;SDS011;31237;45.586;13.782;2023-05-10T09:10:16;5.97;;;4.10;;
45490;SDS011;31237;45.586;13.782;2023-05-10T09:12:43;6.88;;;3.90;;
45490;SDS011;31237;45.586;13.782;2023-05-10T09:15:10;7.13;;;4.05;;
45490;SDS011;31237;45.586;13.782;2023-05-10T09:17:38;5.55;;;3.88;;
45490;SDS011;31237;45.586;13.782;2023-05-10T09:20:05;7.60;;;4.00;;
45490;SDS011;31237;45.586;13.782;2023-05-10T09:22:32;6.20;;;3.85;;
45490;SDS011;31237;45.586;13.782;2023-05-10T09:25:08;6.00;;;3.92;;
45490;SDS011;31237;45.586;13.782;2023-05-10T09:27:39;5.72;;;4.07;;
45490;SDS011;31237;45.586;13.782;2023-05-10T09:30:05;5.30;;;3.60;;
45490;SDS011;31237;45.586;13.782;2023-05-10T09:32:50;6.47;;;4.00;;
45490;SDS011;31237;45.586;13.782;2023-05-10T09:35:18;5.30;;;3.65;;
45490;SDS011;31237;45.586;13.782;2023-05-10T09:37:46;5.75;;;3.83;;
45490;SDS011;31237;45.586;13.782;2023-05-10T09:40:14;5.85;;;3.50;;
45490;SDS011;31237;45.586;13.782;2023-05-10T09:43:17;4.78;;;3.50;;
45490;SDS011;31237;45.586;13.782;2023-05-10T09:45:38;7.67;;;4.30;;
45490;SDS011;31237;45.586;13.782;2023-05-10T09:48:06;7.35;;;4.15;;
45490;SDS011;31237;45.586;13.782;2023-05-10T09:50:32;6.78;;;3.60;;
45490;SDS011;31237;45.586;13.782;2023-05-10T09:52:59;8.02;;;4.30;;
45490;SDS011;31237;45.586;13.782;2023-05-10T09:55:40;6.22;;;3.97;;
45490;SDS011;31237;45.586;13.782;2023-05-10T09:58:09;6.28;;;3.75;;
45490;SDS011;31237;45.586;13.782;2023-05-10T10:00:39;6.90;;;3.65;;
45490;SDS011;31237;45.586;13.782;2023-05-10T10:03:06;5.63;;;4.03;;
45490;SDS011;31237;45.586;13.782;2023-05-10T10:05:42;5.30;;;3.97;;
45490;SDS011;31237;45.586;13.782;2023-05-10T10:08:09;5.80;;;4.00;;
45490;SDS011;31237;45.586;13.782;2023-05-10T10:10:35;5.18;;;3.47;;
45490;SDS011;31237;45.586;13.782;2023-05-10T10:13:01;5.78;;;4.03;;
45490;SDS011;31237;45.586;13.782;2023-05-10T10:15:27;6.10;;;4.07;;
45490;SDS011;31237;45.586;13.782;2023-05-10T10:17:53;6.40;;;4.22;;
45490;SDS011;31237;45.586;13.782;2023-05-10T10:20:20;6.70;;;4.15;;
45490;SDS011;31237;45.586;13.782;2023-05-10T10:22:47;6.18;;;4.15;;
45490;SDS011;31237;45.586;13.782;2023-05-10T10:25:14;7.05;;;4.20;;
45490;SDS011;31237;45.586;13.782;2023-05-10T10:33:10;6.32;;;3.92;;
45490;SDS011;31237;45.586;13.782;2023-05-10T10:35:48;6.30;;;4.07;;
45490;SDS011;31237;45.586;13.782;2023-05-10T10:38:14;7.25;;;3.83;;
45490;SDS011;31237;45.586;13.782;2023-05-10T10:40:41;6.05;;;4.03;;
45490;SDS011;31237;45.586;13.782;2023-05-10T10:43:26;6.40;;;4.25;;
45490;SDS011;31237;45.586;13.782;2023-05-10T10:48:47;5.70;;;4.18;;
45490;SDS011;31237;45.586;13.782;2023-05-10T10:51:14;6.22;;;3.92;;
45490;SDS011;31237;45.586;13.782;2023-05-10T10:53:40;5.93;;;4.03;;
45490;SDS011;31237;45.586;13.782;2023-05-10T10:56:12;7.47;;;4.28;;
45490;SDS011;31237;45.586;13.782;2023-05-10T10:58:40;5.57;;;3.92;;
45490;SDS011;31237;45.586;13.782;2023-05-10T11:01:13;7.40;;;4.35;;
45490;SDS011;31237;45.586;13.782;2023-05-10T11:06:42;4.95;;;3.90;;
45490;SDS011;31237;45.586;13.782;2023-05-10T11:09:08;6.03;;;4.30;;
45490;SDS011;31237;45.586;13.782;2023-05-10T11:11:35;5.93;;;4.32;;
45490;SDS011;31237;45.586;13.782;2023-05-10T11:14:13;6.32;;;4.47;;
45490;SDS011;31237;45.586;13.782;2023-05-10T11:16:42;10.70;;;4.80;;
45490;SDS011;31237;45.586;13.782;2023-05-10T11:19:11;6.18;;;4.65;;
45490;SDS011;31237;45.586;13.782;2023-05-10T11:21:48;5.03;;;3.80;;
45490;SDS011;31237;45.586;13.782;2023-05-10T11:24:16;5.55;;;3.72;;
45490;SDS011;31237;45.586;13.782;2023-05-10T11:26:46;5.75;;;4.07;;
45490;SDS011;31237;45.586;13.782;2023-05-10T11:29:15;6.50;;;4.45;;
45490;SDS011;31237;45.586;13.782;2023-05-10T11:31:41;6.97;;;4.38;;
45490;SDS011;31237;45.586;13.782;2023-05-10T11:34:11;7.35;;;4.72;;
45490;SDS011;31237;45.586;13.782;2023-05-10T11:36:51;5.70;;;4.40;;
45490;SDS011;31237;45.586;13.782;2023-05-10T11:39:18;5.57;;;4.53;;
45490;SDS011;31237;45.586;13.782;2023-05-10T11:41:46;6.60;;;4.43;;
45490;SDS011;31237;45.586;13.782;2023-05-10T11:44:13;7.10;;;4.10;;
45490;SDS011;31237;45.586;13.782;2023-05-10T11:46:39;7.38;;;4.18;;
45490;SDS011;31237;45.586;13.782;2023-05-10T11:49:05;7.07;;;4.93;;
45490;SDS011;31237;45.586;13.782;2023-05-10T11:51:33;5.90;;;4.32;;
45490;SDS011;31237;45.586;13.782;2023-05-10T11:54:07;7.03;;;4.65;;
45490;SDS011;31237;45.586;13.782;2023-05-10T11:56:34;6.85;;;4.88;;
45490;SDS011;31237;45.586;13.782;2023-05-10T11:59:01;6.82;;;4.72;;
45490;SDS011;31237;45.586;13.782;2023-05-10T12:01:28;7.53;;;4.82;;
45490;SDS011;31237;45.586;13.782;2023-05-10T12:03:55;6.57;;;5.03;;
45490;SDS011;31237;45.586;13.782;2023-05-10T12:06:31;6.53;;;4.80;;
45490;SDS011;31237;45.586;13.782;2023-05-10T12:09:01;6.55;;;4.35;;
45490;SDS011;31237;45.586;13.782;2023-05-10T12:11:31;9.18;;;4.15;;
45490;SDS011;31237;45.586;13.782;2023-05-10T12:13:56;6.97;;;4.70;;
45490;SDS011;31237;45.586;13.782;2023-05-10T12:16:23;7.55;;;5.13;;
45490;SDS011;31237;45.586;13.782;2023-05-10T12:18:51;6.75;;;4.97;;
45490;SDS011;31237;45.586;13.782;2023-05-10T12:21:19;5.45;;;4.10;;
45490;SDS011;31237;45.586;13.782;2023-05-10T12:23:50;5.63;;;4.28;;
45490;SDS011;31237;45.586;13.782;2023-05-10T12:26:27;8.57;;;5.00;;
45490;SDS011;31237;45.586;13.782;2023-05-10T12:28:53;7.30;;;4.93;;
45490;SDS011;31237;45.586;13.782;2023-05-10T12:31:19;6.93;;;4.85;;
45490;SDS011;31237;45.586;13.782;2023-05-10T12:33:46;6.65;;;4.60;;
45490;SDS011;31237;45.586;13.782;2023-05-10T12:36:14;6.55;;;4.70;;
45490;SDS011;31237;45.586;13.782;2023-05-10T12:38:41;6.90;;;4.38;;
45490;SDS011;31237;45.586;13.782;2023-05-10T12:41:09;7.13;;;4.70;;
45490;SDS011;31237;45.586;13.782;2023-05-10T12:43:36;5.93;;;4.28;;
45490;SDS011;31237;45.586;13.782;2023-05-10T12:46:08;5.28;;;4.20;;
45490;SDS011;31237;45.586;13.782;2023-05-10T12:48:35;6.05;;;4.75;;
45490;SDS011;31237;45.586;13.782;2023-05-10T12:51:03;10.95;;;4.57;;
45490;SDS011;31237;45.586;13.782;2023-05-10T12:53:29;6.70;;;4.32;;
45490;SDS011;31237;45.586;13.782;2023-05-10T12:55:55;6.57;;;4.40;;
45490;SDS011;31237;45.586;13.782;2023-05-10T12:58:21;5.38;;;4.43;;
45490;SDS011;31237;45.586;13.782;2023-05-10T13:00:47;6.28;;;4.65;;
45490;SDS011;31237;45.586;13.782;2023-05-10T13:03:12;7.28;;;4.82;;
45490;SDS011;31237;45.586;13.782;2023-05-10T13:05:39;6.55;;;4.35;;
45490;SDS011;31237;45.586;13.782;2023-05-10T13:08:05;6.90;;;4.47;;
45490;SDS011;31237;45.586;13.782;2023-05-10T13:10:30;7.05;;;4.70;;
45490;SDS011;31237;45.586;13.782;2023-05-10T13:12:57;6.30;;;4.30;;
45490;SDS011;31237;45.586;13.782;2023-05-10T13:15:23;7.43;;;4.32;;
45490;SDS011;31237;45.586;13.782;2023-05-10T13:17:49;5.60;;;4.47;;
45490;SDS011;31237;45.586;13.782;2023-05-10T13:20:14;6.95;;;4.25;;
45490;SDS011;31237;45.586;13.782;2023-05-10T13:22:41;6.40;;;4.50;;
45490;SDS011;31237;45.586;13.782;2023-05-10T13:25:08;6.95;;;4.90;;
45490;SDS011;31237;45.586;13.782;2023-05-10T13:27:34;6.28;;;4.55;;
45490;SDS011;31237;45.586;13.782;2023-05-10T13:29:59;6.13;;;4.85;;
45490;SDS011;31237;45.586;13.782;2023-05-10T13:32:26;6.43;;;4.88;;
45490;SDS011;31237;45.586;13.782;2023-05-10T13:34:52;8.30;;;5.53;;
45490;SDS011;31237;45.586;13.782;2023-05-10T13:37:17;8.48;;;4.75;;
45490;SDS011;31237;45.586;13.782;2023-05-10T13:39:43;6.20;;;4.60;;
45490;SDS011;31237;45.586;13.782;2023-05-10T13:42:09;7.07;;;5.07;;
45490;SDS011;31237;45.586;13.782;2023-05-10T13:44:34;5.38;;;4.43;;
45490;SDS011;31237;45.586;13.782;2023-05-10T13:47:01;7.28;;;5.20;;
45490;SDS011;31237;45.586;13.782;2023-05-10T13:49:26;7.95;;;5.10;;
45490;SDS011;31237;45.586;13.782;2023-05-10T13:51:52;6.88;;;5.10;;
45490;SDS011;31237;45.586;13.782;2023-05-10T13:54:18;6.20;;;4.57;;
45490;SDS011;31237;45.586;13.782;2023-05-10T13:56:44;8.52;;;5.50;;
45490;SDS011;31237;45.586;13.782;2023-05-10T13:59:12;8.43;;;5.47;;
45490;SDS011;31237;45.586;13.782;2023-05-10T14:01:39;6.40;;;4.97;;
45490;SDS011;31237;45.586;13.782;2023-05-10T14:04:07;7.82;;;5.20;;
45490;SDS011;31237;45.586;13.782;2023-05-10T14:06:35;7.65;;;5.75;;
45490;SDS011;31237;45.586;13.782;2023-05-10T14:09:01;6.60;;;5.25;;
45490;SDS011;31237;45.586;13.782;2023-05-10T14:11:28;6.68;;;4.53;;
45490;SDS011;31237;45.586;13.782;2023-05-10T14:13:53;8.02;;;5.10;;
45490;SDS011;31237;45.586;13.782;2023-05-10T14:16:19;7.15;;;5.18;;
45490;SDS011;31237;45.586;13.782;2023-05-10T14:18:45;6.80;;;4.95;;
45490;SDS011;31237;45.586;13.782;2023-05-10T14:21:11;7.18;;;5.03;;
45490;SDS011;31237;45.586;13.782;2023-05-10T14:23:37;5.93;;;4.90;;
45490;SDS011;31237;45.586;13.782;2023-05-10T14:26:03;8.70;;;5.80;;
45490;SDS011;31237;45.586;13.782;2023-05-10T14:28:29;6.45;;;5.22;;
45490;SDS011;31237;45.586;13.782;2023-05-10T14:30:55;6.93;;;5.40;;
45490;SDS011;31237;45.586;13.782;2023-05-10T14:33:20;9.32;;;5.88;;
45490;SDS011;31237;45.586;13.782;2023-05-10T14:35:46;6.38;;;5.20;;
45490;SDS011;31237;45.586;13.782;2023-05-10T14:38:12;7.45;;;5.25;;
45490;SDS011;31237;45.586;13.782;2023-05-10T14:40:39;6.60;;;5.07;;
45490;SDS011;31237;45.586;13.782;2023-05-10T14:43:04;8.48;;;5.68;;
45490;SDS011;31237;45.586;13.782;2023-05-10T14:45:30;8.65;;;5.68;;
45490;SDS011;31237;45.586;13.782;2023-05-10T14:47:56;7.93;;;5.43;;
45490;SDS011;31237;45.586;13.782;2023-05-10T14:50:23;7.32;;;5.50;;
45490;SDS011;31237;45.586;13.782;2023-05-10T14:52:49;7.38;;;5.75;;
45490;SDS011;31237;45.586;13.782;2023-05-10T14:55:15;8.82;;;5.70;;
45490;SDS011;31237;45.586;13.782;2023-05-10T14:57:41;7.50;;;5.57;;
45490;SDS011;31237;45.586;13.782;2023-05-10T15:00:07;8.20;;;6.00;;
45490;SDS011;31237;45.586;13.782;2023-05-10T15:02:33;7.82;;;5.72;;
45490;SDS011;31237;45.586;13.782;2023-05-10T15:04:59;7.75;;;5.78;;
45490;SDS011;31237;45.586;13.782;2023-05-10T15:07:25;7.38;;;4.93;;